createdAt,value
2022-11-20T00:01:54.969Z,13.82
2022-11-20T00:04:24.707Z,13.70
2022-11-20T00:06:54.136Z,13.80
2022-11-20T00:11:52.712Z,8.85
2022-11-20T00:14:23.555Z,12.40
2022-11-20T00:16:52.943Z,22.05
2022-11-20T00:19:21.746Z,24.92
2022-11-20T00:21:54.703Z,25.50
2022-11-20T00:24:25.351Z,26.45
2022-11-20T00:27:01.798Z,24.15
2022-11-20T00:29:31.004Z,24.23
2022-11-20T00:32:18.887Z,21.90
2022-11-20T00:34:52.584Z,19.10
2022-11-20T00:37:23.583Z,14.73
2022-11-20T00:40:00.313Z,13.30
2022-11-20T00:42:29.856Z,13.02
2022-11-20T00:45:02.416Z,11.45
2022-11-20T00:47:30.819Z,12.63
2022-11-20T00:50:01.800Z,12.45
2022-11-20T00:52:31.042Z,12.60
2022-11-20T00:55:05.053Z,10.23
2022-11-20T00:57:48.685Z,10.80
2022-11-20T01:00:18.818Z,10.15
2022-11-20T01:03:08.514Z,11.70
2022-11-20T01:05:39.419Z,8.65
2022-11-20T01:08:11.741Z,13.13
2022-11-20T01:10:41.245Z,12.68
2022-11-20T01:13:28.572Z,12.07
2022-11-20T01:16:05.132Z,11.95
2022-11-20T01:18:34.591Z,10.68
2022-11-20T01:21:05.297Z,12.77
2022-11-20T01:23:35.717Z,12.30
2022-11-20T01:26:07.409Z,10.88
2022-11-20T01:28:42.901Z,11.25
2022-11-20T01:31:14.888Z,11.75
2022-11-20T01:36:12.709Z,8.60
2022-11-20T01:38:39.964Z,11.90
2022-11-20T01:41:07.605Z,9.75
2022-11-20T01:43:35.072Z,11.50
2022-11-20T01:46:02.322Z,12.15
2022-11-20T01:48:49.848Z,11.55
2022-11-20T01:51:22.778Z,12.45
2022-11-20T01:53:51.011Z,11.43
2022-11-20T01:56:18.644Z,13.40
2022-11-20T01:58:49.024Z,12.68
2022-11-20T02:01:16.351Z,11.05
2022-11-20T02:03:44.587Z,12.70
2022-11-20T02:06:14.604Z,11.68
2022-11-20T02:08:41.912Z,11.10
2022-11-20T02:11:09.301Z,13.27
2022-11-20T02:13:45.645Z,12.38
2022-11-20T02:16:12.909Z,12.45
2022-11-20T02:18:40.661Z,12.00
2022-11-20T02:21:11.033Z,13.05
2022-11-20T02:23:46.643Z,12.15
2022-11-20T02:26:15.056Z,11.73
2022-11-20T02:28:42.360Z,11.02
2022-11-20T02:31:09.622Z,10.02
2022-11-20T02:33:36.878Z,10.73
2022-11-20T02:36:04.435Z,11.65
2022-11-20T02:38:31.757Z,11.57
2022-11-20T02:40:58.979Z,13.93
2022-11-20T02:43:26.240Z,10.75
2022-11-20T02:46:02.420Z,11.32
2022-11-20T02:48:33.669Z,11.73
2022-11-20T02:51:01.592Z,10.73
2022-11-20T02:53:28.997Z,11.32
2022-11-20T02:56:00.552Z,11.15
2022-11-20T02:58:27.915Z,11.52
2022-11-20T03:01:02.587Z,11.95
2022-11-20T03:03:29.958Z,11.10
2022-11-20T03:05:57.218Z,11.32
2022-11-20T03:08:24.587Z,11.43
2022-11-20T03:10:51.872Z,10.38
2022-11-20T03:13:22.151Z,12.85
2022-11-20T03:15:49.513Z,10.95
2022-11-20T03:18:16.786Z,10.95
2022-11-20T03:20:44.088Z,12.32
2022-11-20T03:23:13.573Z,11.93
2022-11-20T03:25:40.941Z,10.30
2022-11-20T03:28:08.172Z,10.80
2022-11-20T03:30:36.518Z,11.88
2022-11-20T03:33:06.923Z,11.73
2022-11-20T03:35:34.321Z,12.35
2022-11-20T03:38:01.626Z,11.57
2022-11-20T03:40:29.073Z,10.80
2022-11-20T03:42:56.447Z,12.27
2022-11-20T03:45:24.150Z,11.63
2022-11-20T03:47:51.504Z,11.90
2022-11-20T03:50:18.852Z,11.93
2022-11-20T03:52:46.058Z,12.35
2022-11-20T03:55:13.335Z,11.88
2022-11-20T03:57:40.651Z,11.88
2022-11-20T04:00:08.276Z,12.60
2022-11-20T04:02:35.548Z,12.35
2022-11-20T04:05:05.985Z,11.95
2022-11-20T04:07:35.474Z,11.05
2022-11-20T04:10:02.789Z,12.18
2022-11-20T04:12:33.150Z,11.68
2022-11-20T04:15:00.536Z,13.30
2022-11-20T04:17:27.830Z,12.50
2022-11-20T04:19:55.099Z,11.80
2022-11-20T04:22:22.424Z,13.10
2022-11-20T04:24:49.714Z,12.25
2022-11-20T04:27:16.966Z,13.00
2022-11-20T04:29:44.284Z,12.63
2022-11-20T04:32:13.186Z,12.32
2022-11-20T04:34:42.339Z,9.20
2022-11-20T04:37:09.695Z,10.18
2022-11-20T04:39:36.965Z,13.45
2022-11-20T04:42:25.097Z,12.50
2022-11-20T04:44:52.504Z,12.38
2022-11-20T04:47:37.716Z,13.10
2022-11-20T04:50:05.322Z,13.02
2022-11-20T04:52:32.602Z,12.20
2022-11-20T04:54:59.920Z,12.68
2022-11-20T04:57:27.256Z,12.93
2022-11-20T04:59:54.578Z,12.05
2022-11-20T05:02:22.273Z,12.75
2022-11-20T05:04:49.856Z,13.25
2022-11-20T05:07:17.172Z,12.27
2022-11-20T05:09:44.506Z,14.05
2022-11-20T05:12:11.904Z,12.23
2022-11-20T05:14:39.215Z,12.77
2022-11-20T05:17:12.043Z,13.52
2022-11-20T05:19:39.395Z,12.80
2022-11-20T05:22:06.687Z,13.27
2022-11-20T05:24:34.001Z,13.60
2022-11-20T05:27:03.643Z,12.23
2022-11-20T05:29:30.954Z,12.38
2022-11-20T05:31:58.269Z,12.88
2022-11-20T05:34:25.572Z,14.50
2022-11-20T05:36:52.789Z,12.77
2022-11-20T05:39:20.329Z,14.15
2022-11-20T05:42:10.824Z,13.48
2022-11-20T05:44:38.085Z,13.05
2022-11-20T05:47:05.449Z,13.82
2022-11-20T05:49:32.935Z,13.57
2022-11-20T05:52:00.259Z,13.60
2022-11-20T05:54:27.573Z,13.32
2022-11-20T05:56:54.942Z,11.73
2022-11-20T05:59:22.504Z,12.98
2022-11-20T06:01:50.021Z,13.90
2022-11-20T06:04:17.472Z,14.43
2022-11-20T06:06:44.794Z,12.35
2022-11-20T06:09:12.074Z,12.85
2022-11-20T06:11:39.411Z,13.32
2022-11-20T06:14:12.011Z,13.05
2022-11-20T06:16:39.442Z,13.68
2022-11-20T06:19:06.732Z,12.80
2022-11-20T06:21:34.021Z,13.48
2022-11-20T06:24:01.308Z,14.18
2022-11-20T06:26:30.486Z,12.55
2022-11-20T06:29:00.564Z,12.98
2022-11-20T06:31:28.167Z,14.07
2022-11-20T06:33:55.593Z,13.07
2022-11-20T06:36:24.006Z,14.20
2022-11-20T06:38:51.482Z,14.20
2022-11-20T06:41:19.977Z,14.52
2022-11-20T06:43:50.195Z,15.77
2022-11-20T06:46:18.654Z,14.30
2022-11-20T06:48:48.569Z,14.48
2022-11-20T06:53:43.182Z,13.80
2022-11-20T06:56:10.568Z,14.15
2022-11-20T06:58:38.131Z,14.68
2022-11-20T07:01:06.963Z,15.60
2022-11-20T07:03:34.538Z,11.73
2022-11-20T07:06:02.975Z,14.50
2022-11-20T07:08:30.408Z,14.57
2022-11-20T07:11:01.636Z,13.65
2022-11-20T07:13:29.721Z,13.60
2022-11-20T07:15:57.152Z,15.10
2022-11-20T07:18:26.767Z,14.20
2022-11-20T07:20:54.208Z,14.35
2022-11-20T07:23:21.456Z,15.23
2022-11-20T07:25:48.767Z,15.82
2022-11-20T07:28:16.100Z,15.32
2022-11-20T07:30:51.467Z,14.98
2022-11-20T07:33:18.816Z,13.88
2022-11-20T07:35:46.192Z,13.95
2022-11-20T07:38:13.710Z,15.45
2022-11-20T07:40:41.069Z,16.50
2022-11-20T07:43:08.667Z,15.70
2022-11-20T07:45:35.982Z,17.92
2022-11-20T07:48:03.340Z,16.60
2022-11-20T07:50:30.769Z,16.67
2022-11-20T07:53:07.458Z,15.48
2022-11-20T07:55:35.036Z,15.88
2022-11-20T07:58:02.342Z,16.15
2022-11-20T08:00:29.767Z,17.23
2022-11-20T08:02:57.832Z,16.63
2022-11-20T08:05:25.127Z,15.63
2022-11-20T08:07:52.473Z,17.45
2022-11-20T08:10:19.931Z,19.25
2022-11-20T08:13:12.081Z,18.67
2022-11-20T08:15:40.584Z,17.55
2022-11-20T08:21:00.050Z,19.02
2022-11-20T08:23:27.316Z,18.70
2022-11-20T08:25:54.607Z,17.33
2022-11-20T08:28:22.532Z,17.17
2022-11-20T08:30:51.264Z,19.60
2022-11-20T08:33:21.820Z,16.00
2022-11-20T08:35:49.120Z,17.75
2022-11-20T08:38:16.416Z,17.17
2022-11-20T08:41:03.755Z,17.33
2022-11-20T08:43:31.058Z,17.60
2022-11-20T08:45:58.871Z,16.98
2022-11-20T08:48:27.964Z,17.00
2022-11-20T08:50:55.202Z,17.60
2022-11-20T08:53:22.468Z,18.70
2022-11-20T08:55:49.753Z,17.00
2022-11-20T08:58:17.072Z,18.85
2022-11-20T09:00:46.586Z,17.75
2022-11-20T09:03:14.449Z,19.63
2022-11-20T09:05:41.865Z,18.83
2022-11-20T09:08:09.179Z,19.20
2022-11-20T09:10:37.549Z,19.05
2022-11-20T09:13:04.858Z,19.83
2022-11-20T09:15:32.149Z,21.02
2022-11-20T09:18:00.641Z,19.60
2022-11-20T09:20:29.663Z,18.02
2022-11-20T09:22:57.294Z,18.48
2022-11-20T09:25:24.670Z,19.35
2022-11-20T09:27:59.169Z,17.67
2022-11-20T09:30:27.298Z,19.88
2022-11-20T09:32:54.709Z,20.27
2022-11-20T09:35:22.043Z,20.23
2022-11-20T09:37:49.510Z,18.75
2022-11-20T09:40:27.178Z,18.10
2022-11-20T09:43:03.792Z,18.10
2022-11-20T09:45:37.375Z,20.15
2022-11-20T09:48:31.197Z,17.80
2022-11-20T09:51:04.797Z,18.88
2022-11-20T09:53:38.324Z,18.40
2022-11-20T09:56:06.293Z,18.52
2022-11-20T09:58:37.040Z,18.45
2022-11-20T10:01:15.735Z,20.08
2022-11-20T10:03:58.042Z,20.67
2022-11-20T10:06:59.501Z,19.85
2022-11-20T10:09:39.223Z,17.35
2022-11-20T10:12:25.409Z,19.65
2022-11-20T10:14:58.953Z,19.00
2022-11-20T10:17:41.027Z,19.20
2022-11-20T10:20:14.580Z,19.20
2022-11-20T10:22:42.220Z,19.40
2022-11-20T10:25:18.582Z,19.40
2022-11-20T10:27:54.956Z,17.85
2022-11-20T10:30:25.882Z,18.23
2022-11-20T10:32:55.018Z,20.30
2022-11-20T10:35:28.394Z,15.90
2022-11-20T10:38:01.259Z,18.02
2022-11-20T10:40:40.694Z,19.30
2022-11-20T10:43:19.544Z,20.02
2022-11-20T10:45:53.034Z,18.63
2022-11-20T10:48:20.851Z,20.98
2022-11-20T10:51:24.093Z,19.38
2022-11-20T10:54:03.309Z,19.05
2022-11-20T10:56:40.163Z,21.20
2022-11-20T10:59:32.294Z,19.70
2022-11-20T11:02:02.677Z,20.92
2022-11-20T11:04:39.802Z,20.55
2022-11-20T11:07:33.320Z,19.20
2022-11-20T11:10:00.672Z,21.23
2022-11-20T11:12:29.616Z,23.23
2022-11-20T11:14:58.497Z,22.45
2022-11-20T11:17:31.174Z,22.60
2022-11-20T11:20:03.391Z,22.75
2022-11-20T11:22:32.257Z,22.83
2022-11-20T11:24:59.658Z,22.45
2022-11-20T11:27:27.216Z,24.83
2022-11-20T11:30:04.277Z,22.15
2022-11-20T11:32:31.749Z,21.40
2022-11-20T11:35:07.311Z,22.58
2022-11-20T11:37:36.796Z,23.42
2022-11-20T11:42:59.653Z,23.50
2022-11-20T11:45:27.375Z,24.92
2022-11-20T11:47:56.508Z,25.48
2022-11-20T11:50:26.089Z,24.40
2022-11-20T11:53:15.160Z,25.95
2022-11-20T11:55:46.241Z,21.38
2022-11-20T11:58:16.835Z,25.30
2022-11-20T12:00:50.933Z,25.30
2022-11-20T12:03:24.494Z,27.13
2022-11-20T12:05:57.149Z,25.75
2022-11-20T12:08:38.937Z,26.08
2022-11-20T12:11:12.440Z,30.33
2022-11-20T12:14:06.309Z,27.33
2022-11-20T12:16:36.544Z,24.85
2022-11-20T12:19:03.847Z,28.00
2022-11-20T12:21:47.299Z,26.67
2022-11-20T12:24:37.843Z,31.25
2022-11-20T12:27:16.772Z,29.92
2022-11-20T12:30:02.949Z,32.38
2022-11-20T12:32:41.057Z,30.67
2022-11-20T12:35:11.440Z,30.38
2022-11-20T12:37:57.923Z,30.13
2022-11-20T12:40:45.661Z,30.90
2022-11-20T12:43:45.239Z,33.08
2022-11-20T12:46:20.038Z,31.92
2022-11-20T12:48:47.361Z,29.50
2022-11-20T12:51:22.977Z,32.72
2022-11-20T12:54:01.061Z,36.20
2022-11-20T12:56:31.372Z,30.10
2022-11-20T12:59:16.398Z,33.05
2022-11-20T13:01:52.735Z,28.23
2022-11-20T13:04:38.443Z,32.92
2022-11-20T13:07:07.538Z,31.23
2022-11-20T13:09:36.516Z,29.60
2022-11-20T13:12:15.419Z,28.87
2022-11-20T13:14:50.273Z,25.87
2022-11-20T13:17:25.005Z,30.50
2022-11-20T13:20:04.931Z,30.52
2022-11-20T13:22:51.916Z,28.67
2022-11-20T13:25:41.145Z,29.35
2022-11-20T13:28:11.403Z,33.53
2022-11-20T13:30:50.189Z,30.73
2022-11-20T13:33:33.728Z,29.60
2022-11-20T13:36:04.547Z,28.90
2022-11-20T13:38:44.997Z,34.88
2022-11-20T13:41:32.265Z,30.25
2022-11-20T13:44:09.173Z,30.60
2022-11-20T13:46:40.578Z,32.88
2022-11-20T13:49:43.865Z,34.40
2022-11-20T13:52:37.567Z,32.05
2022-11-20T13:55:27.445Z,32.17
2022-11-20T13:58:13.664Z,33.75
2022-11-20T14:00:53.522Z,32.95
2022-11-20T14:03:43.714Z,31.85
2022-11-20T14:06:32.675Z,33.63
2022-11-20T14:09:00.606Z,35.63
2022-11-20T14:11:29.148Z,36.30
2022-11-20T14:13:56.420Z,32.20
2022-11-20T14:16:24.579Z,33.55
2022-11-20T14:18:52.183Z,34.95
2022-11-20T14:21:30.443Z,34.30
2022-11-20T14:24:08.850Z,33.17
2022-11-20T14:26:49.357Z,34.90
2022-11-20T14:29:18.031Z,34.13
2022-11-20T14:31:51.181Z,39.63
2022-11-20T14:34:23.481Z,36.33
2022-11-20T14:39:27.185Z,34.05
2022-11-20T14:41:55.363Z,34.83
2022-11-20T14:44:25.322Z,38.05
2022-11-20T14:46:53.529Z,34.20
2022-11-20T14:49:21.103Z,36.72
2022-11-20T14:51:48.473Z,34.70
2022-11-20T14:54:22.225Z,38.30
2022-11-20T14:56:57.129Z,38.22
2022-11-20T14:59:28.098Z,38.45
2022-11-20T15:01:57.190Z,36.13
2022-11-20T15:04:24.895Z,37.08
2022-11-20T15:06:53.269Z,37.85
2022-11-20T15:09:20.709Z,35.33
2022-11-20T15:11:58.734Z,38.80
2022-11-20T15:14:26.938Z,36.03
2022-11-20T15:16:55.501Z,35.80
2022-11-20T15:19:24.018Z,35.00
2022-11-20T15:21:51.697Z,34.63
2022-11-20T15:24:19.135Z,38.10
2022-11-20T15:26:46.594Z,36.00
2022-11-20T15:29:19.594Z,37.42
2022-11-20T15:31:47.206Z,34.42
2022-11-20T15:34:15.704Z,38.08
2022-11-20T15:36:43.535Z,34.08
2022-11-20T15:39:12.381Z,34.63
2022-11-20T15:41:39.774Z,35.00
2022-11-20T15:44:07.595Z,38.13
2022-11-20T15:46:55.729Z,32.72
2022-11-20T15:49:27.787Z,34.67
2022-11-20T15:51:56.137Z,35.17
2022-11-20T15:54:28.522Z,35.70
2022-11-20T15:56:56.895Z,34.75
2022-11-20T15:59:25.744Z,31.30
2022-11-20T16:01:56.134Z,30.67
2022-11-20T16:04:24.627Z,27.20
2022-11-20T16:06:57.734Z,29.92
2022-11-20T16:09:28.315Z,32.42
2022-11-20T16:11:59.492Z,30.85
2022-11-20T16:14:49.748Z,31.00
2022-11-20T16:17:39.690Z,30.25
2022-11-20T16:20:09.063Z,23.85
2022-11-20T16:22:37.831Z,29.75
2022-11-20T16:25:09.577Z,31.33
2022-11-20T16:27:37.515Z,29.67
2022-11-20T16:30:06.426Z,30.92
2022-11-20T16:32:40.944Z,31.73
2022-11-20T16:35:08.992Z,31.27
2022-11-20T16:37:36.978Z,31.98
2022-11-20T16:40:07.586Z,30.40
2022-11-20T16:42:36.168Z,28.13
2022-11-20T16:45:04.561Z,32.90
2022-11-20T16:47:36.835Z,28.95
2022-11-20T16:50:05.308Z,31.60
2022-11-20T16:52:33.275Z,32.50
2022-11-20T16:55:04.321Z,30.90
2022-11-20T16:57:36.251Z,30.50
2022-11-20T17:00:06.655Z,30.42
2022-11-20T17:02:34.611Z,30.58
2022-11-20T17:05:03.578Z,30.25
2022-11-20T17:07:40.727Z,33.50
2022-11-20T17:10:11.184Z,29.58
2022-11-20T17:12:46.680Z,31.05
2022-11-20T17:15:15.747Z,31.85
2022-11-20T17:17:45.417Z,32.83
2022-11-20T17:20:15.395Z,31.00
2022-11-20T17:22:44.879Z,34.40
2022-11-20T17:25:25.752Z,38.47
2022-11-20T17:28:00.785Z,36.67
2022-11-20T17:30:36.379Z,31.75
2022-11-20T17:33:07.997Z,36.67
2022-11-20T17:35:38.317Z,38.50
2022-11-20T17:38:06.629Z,34.90
2022-11-20T17:40:37.336Z,43.97
2022-11-20T17:43:05.330Z,31.95
2022-11-20T17:45:36.690Z,51.53
2022-11-20T17:48:04.384Z,33.65
2022-11-20T17:50:31.802Z,34.38
2022-11-20T17:52:59.049Z,32.05
2022-11-20T17:55:26.330Z,33.20
2022-11-20T17:57:56.479Z,35.42
2022-11-20T18:00:25.169Z,32.92
2022-11-20T18:02:56.014Z,31.80
2022-11-20T18:05:23.591Z,30.60
2022-11-20T18:07:53.584Z,35.65
2022-11-20T18:10:20.899Z,32.55
2022-11-20T18:12:48.175Z,33.10
2022-11-20T18:15:15.644Z,34.00
2022-11-20T18:17:43.092Z,33.63
2022-11-20T18:22:58.034Z,36.45
2022-11-20T18:25:25.290Z,31.70
2022-11-20T18:27:52.715Z,33.58
2022-11-20T18:30:20.025Z,31.13
2022-11-20T18:32:47.307Z,30.92
2022-11-20T18:35:14.578Z,36.10
2022-11-20T18:37:41.914Z,32.92
2022-11-20T18:40:09.598Z,30.63
2022-11-20T18:43:10.314Z,32.13
2022-11-20T18:45:37.616Z,31.08
2022-11-20T18:48:04.890Z,35.13
2022-11-20T18:50:32.135Z,31.42
2022-11-20T18:52:59.508Z,33.10
2022-11-20T18:55:26.756Z,33.80
2022-11-20T18:57:55.132Z,32.80
2022-11-20T19:00:24.773Z,35.03
2022-11-20T19:02:54.204Z,33.80
2022-11-20T19:05:21.458Z,35.40
2022-11-20T19:07:48.825Z,35.13
2022-11-20T19:10:18.958Z,33.03
2022-11-20T19:12:46.173Z,31.02
2022-11-20T19:15:13.398Z,32.40
2022-11-20T19:17:40.730Z,31.45
2022-11-20T19:20:08.261Z,34.95
2022-11-20T19:22:35.482Z,31.67
2022-11-20T19:25:02.790Z,32.40
2022-11-20T19:27:30.068Z,32.40
2022-11-20T19:30:03.124Z,33.10
2022-11-20T19:32:30.848Z,35.25
2022-11-20T19:34:58.278Z,34.88
2022-11-20T19:37:25.540Z,34.90
2022-11-20T19:39:52.866Z,35.97
2022-11-20T19:42:20.124Z,35.00
2022-11-20T19:44:47.658Z,34.95
2022-11-20T19:47:15.149Z,36.42
2022-11-20T19:49:42.546Z,38.63
2022-11-20T19:52:09.847Z,36.10
2022-11-20T19:54:37.119Z,38.15
2022-11-20T19:57:04.514Z,36.03
2022-11-20T19:59:31.903Z,40.25
2022-11-20T20:01:59.244Z,35.85
2022-11-20T20:04:26.769Z,35.85
2022-11-20T20:06:54.092Z,36.58
2022-11-20T20:09:23.702Z,34.83
2022-11-20T20:11:51.237Z,33.25
2022-11-20T20:14:19.237Z,35.25
2022-11-20T20:16:46.656Z,36.13
2022-11-20T20:19:17.003Z,35.25
2022-11-20T20:21:44.835Z,36.63
2022-11-20T20:24:12.458Z,36.80
2022-11-20T20:26:39.779Z,35.75
2022-11-20T20:29:07.181Z,37.92
2022-11-20T20:31:34.504Z,35.33
2022-11-20T20:34:03.280Z,36.92
2022-11-20T20:36:30.556Z,34.33
2022-11-20T20:39:02.839Z,37.95
2022-11-20T20:41:30.286Z,36.08
2022-11-20T20:44:16.128Z,37.33
2022-11-20T20:46:43.811Z,34.05
2022-11-20T20:49:11.120Z,33.13
2022-11-20T20:51:38.437Z,33.83
2022-11-20T20:54:06.057Z,33.92
2022-11-20T20:56:33.403Z,37.08
2022-11-20T20:59:00.610Z,33.03
2022-11-20T21:01:30.604Z,35.00
2022-11-20T21:03:58.363Z,35.63
2022-11-20T21:06:26.153Z,38.25
2022-11-20T21:08:53.584Z,32.55
2022-11-20T21:11:21.162Z,35.17
2022-11-20T21:13:49.139Z,37.55
2022-11-20T21:16:22.342Z,35.03
2022-11-20T21:18:49.705Z,33.97
2022-11-20T21:21:37.825Z,32.35
2022-11-20T21:24:05.372Z,33.42
2022-11-20T21:26:32.641Z,33.17
2022-11-20T21:28:59.965Z,33.72
2022-11-20T21:31:28.720Z,34.22
2022-11-20T21:33:56.741Z,30.73
2022-11-20T21:36:26.920Z,34.60
2022-11-20T21:38:55.362Z,35.47
2022-11-20T21:41:23.043Z,33.95
2022-11-20T21:44:15.906Z,33.65
2022-11-20T21:46:39.844Z,34.28
2022-11-20T21:49:07.059Z,37.67
2022-11-20T21:51:34.342Z,37.05
2022-11-20T21:54:01.681Z,36.83
2022-11-20T21:56:29.046Z,35.85
2022-11-20T21:58:56.361Z,31.52
2022-11-20T22:01:28.095Z,36.78
2022-11-20T22:03:57.298Z,33.20
2022-11-20T22:06:25.793Z,33.95
2022-11-20T22:08:53.244Z,32.78
2022-11-20T22:11:21.378Z,31.33
2022-11-20T22:14:08.446Z,34.75
2022-11-20T22:16:36.408Z,34.47
2022-11-20T22:19:04.270Z,30.27
2022-11-20T22:21:31.969Z,33.95
2022-11-20T22:23:59.597Z,30.92
2022-11-20T22:26:27.964Z,31.42
2022-11-20T22:28:56.299Z,29.95
2022-11-20T22:31:24.854Z,31.23
2022-11-20T22:33:52.343Z,30.35
2022-11-20T22:36:20.931Z,30.92
2022-11-20T22:38:48.505Z,31.92
2022-11-20T22:41:19.559Z,32.20
2022-11-20T22:43:47.161Z,33.55
2022-11-20T22:46:18.861Z,33.95
2022-11-20T22:49:06.456Z,33.63
2022-11-20T22:51:41.068Z,31.92
2022-11-20T22:54:09.830Z,33.85
2022-11-20T22:56:37.119Z,29.13
2022-11-20T22:59:04.649Z,36.17
2022-11-20T23:01:33.138Z,33.63
2022-11-20T23:04:05.175Z,34.75
2022-11-20T23:06:36.605Z,38.63
2022-11-20T23:09:07.925Z,39.47
2022-11-20T23:11:35.722Z,36.05
2022-11-20T23:14:04.940Z,35.47
2022-11-20T23:16:32.880Z,32.85
2022-11-20T23:19:01.991Z,34.20
2022-11-20T23:21:29.359Z,28.20
2022-11-20T23:23:57.356Z,33.03
2022-11-20T23:26:25.598Z,32.33
2022-11-20T23:28:53.850Z,34.22
2022-11-20T23:31:21.634Z,36.15
2022-11-20T23:33:49.329Z,32.15
2022-11-20T23:36:23.346Z,33.03
2022-11-20T23:38:51.210Z,33.13
2022-11-20T23:41:19.377Z,34.45
2022-11-20T23:43:47.553Z,30.00
2022-11-20T23:46:16.924Z,45.17
2022-11-20T23:48:45.963Z,42.63
2022-11-20T23:51:13.700Z,39.15
2022-11-20T23:53:41.675Z,35.83
2022-11-20T23:56:09.638Z,38.83
2022-11-20T23:58:38.230Z,32.63
